Todos
Briscoes Catarina Ranch Airport (Catarina, TX) 1TE1 Condições meteorológicas
There is no TAF data available at 1TE1 or any nearby airports.
There is no METAR data available at 1TE1. Showing METAR data for KCZT (19 mi N).
Histórico recente de METAR CZT (sem dados para 1TE1)
| Date | Time (CDT) | Flight Rules | Wind Dir. | Speed | Type | Height AGL (ft) | Visibility | Temp (°C) | Temp (°F) | Dew Point (°C) | Dew Point (°F) | Rel. Humid. | Pressure | Density Altitude | Remarks |
|---|---|---|---|---|---|---|---|---|---|---|---|---|---|---|---|
| 05-Mai | 07:15 | VFR | 180° | 5 kt | 10 miles | 22° | 71° | 22° | 71° | 100% | 29.77 in Hg | 1.588 ft | |||
| 05-Mai | 06:55 | VFR | 180° | 4 kt | 10 miles | 22° | 71° | 22° | 71° | 100% | 29.75 in Hg | 1.608 ft | |||
| 05-Mai | 06:15 | VFR | 170° | 6 kt | 10 miles | 22° | 71° | 22° | 71° | 100% | 29.75 in Hg | 1.608 ft | |||
| 05-Mai | 05:55 | VFR | 170° | 9 kt | 10 miles | 22° | 71° | 22° | 71° | 100% | 29.75 in Hg | 1.608 ft | |||
| 05-Mai | 05:35 | VFR | 180° | 9 kt | 10 miles | 22° | 71° | 22° | 71° | 100% | 29.75 in Hg | 1.608 ft | |||
| 05-Mai | 05:15 | VFR | 170° | 6 kt | 10 miles | 21° | 69° | 21° | 69° | 100% | 29.75 in Hg | 1.488 ft | |||
| 05-Mai | 04:55 | VFR | 170° | 6 kt | 10 miles | 21° | 69° | 21° | 69° | 100% | 29.75 in Hg | 1.488 ft | |||
| 05-Mai | 04:35 | VFR | 140° | 3 kt | 10 miles | 21° | 69° | 21° | 69° | 100% | 29.75 in Hg | 1.488 ft | |||
| 05-Mai | 04:15 | VFR | 150° | 3 kt | 10 miles | 20° | 68° | 20° | 68° | 100% | 29.75 in Hg | 1.368 ft | |||
| 05-Mai | 03:55 | VFR | 140° | 4 kt | 10 miles | 20° | 68° | 20° | 68° | 100% | 29.75 in Hg | 1.368 ft | |||
| 05-Mai | 03:15 | VFR | 150° | 3 kt | 10 miles | 20° | 68° | 20° | 68° | 100% | 29.76 in Hg | 1.358 ft | |||
| 05-Mai | 02:55 | VFR | 150° | 3 kt | 10 miles | 20° | 68° | 20° | 68° | 100% | 29.77 in Hg | 1.348 ft | |||
| 05-Mai | 02:15 | VFR | 150° | 5 kt | 10 miles | 21° | 69° | 21° | 69° | 100% | 29.78 in Hg | 1.458 ft | |||
| 05-Mai | 01:55 | VFR | 140° | 4 kt | 10 miles | 21° | 69° | 21° | 69° | 100% | 29.79 in Hg | 1.448 ft | |||
| 05-Mai | 01:35 | VFR | 150° | 5 kt | 10 miles | 21° | 69° | 21° | 69° | 100% | 29.80 in Hg | 1.438 ft | |||
| 05-Mai | 01:15 | VFR | 140° | 4 kt | 10 miles | 21° | 69° | 21° | 69° | 100% | 29.81 in Hg | 1.428 ft | |||
| 05-Mai | 00:15 | VFR | 150° | 3 kt | 10 miles | 21° | 69° | 21° | 69° | 100% | 29.82 in Hg | 1.418 ft | |||
| 04-Mai | 23:55 | VFR | 150° | 3 kt | 10 miles | 21° | 69° | 21° | 69° | 100% | 29.82 in Hg | 1.418 ft | |||
| 04-Mai | 23:15 | VFR | Calm | 10 miles | 22° | 71° | 20° | 68° | 88% | 29.82 in Hg | 1.538 ft | ||||
| 04-Mai | 22:55 | VFR | 130° | 3 kt | 10 miles |
22° | 71° | 19° | 66° | 83% | 29.81 in Hg | 1.548 ft | |||
| 04-Mai | 22:15 | VFR | 150° | 3 kt | 7 miles |
22° | 71° | 18° | 64° | 78% | 29.81 in Hg | 1.548 ft | |||
| 04-Mai | 21:55 | VFR | Calm | 10 miles | 23° | 73° | 18° | 64° | 73% | 29.81 in Hg | 1.668 ft | ||||
| 04-Mai | 21:35 | VFR | 150° | 3 kt | 10 miles | 23° | 73° | 18° | 64° | 73% | 29.80 in Hg | 1.678 ft | |||
| 04-Mai | 21:15 | VFR | 140° | 3 kt | 10 miles | 24° | 75° | 18° | 64° | 69% | 29.79 in Hg | 1.808 ft |
Entrar
| Seu navegador não suporta. atualize seu navegador |
